sensor_id;sensor_type;location;lat;lon;timestamp;P1;durP1;ratioP1;P2;durP2;ratioP2
41333;SDS011;27078;46.428;6.256;2023-04-15T00:01:58;1.77;;;0.80;;
41333;SDS011;27078;46.428;6.256;2023-04-15T00:04:24;2.35;;;0.82;;
41333;SDS011;27078;46.428;6.256;2023-04-15T00:06:50;2.30;;;0.73;;
41333;SDS011;27078;46.428;6.256;2023-04-15T00:09:19;2.42;;;0.80;;
41333;SDS011;27078;46.428;6.256;2023-04-15T00:11:45;1.60;;;0.75;;
41333;SDS011;27078;46.428;6.256;2023-04-15T00:14:13;1.70;;;0.82;;
41333;SDS011;27078;46.428;6.256;2023-04-15T00:16:39;2.08;;;1.00;;
41333;SDS011;27078;46.428;6.256;2023-04-15T00:19:05;3.00;;;0.77;;
41333;SDS011;27078;46.428;6.256;2023-04-15T00:21:30;2.08;;;1.00;;
41333;SDS011;27078;46.428;6.256;2023-04-15T00:23:56;2.20;;;1.10;;
41333;SDS011;27078;46.428;6.256;2023-04-15T00:26:21;2.30;;;1.00;;
41333;SDS011;27078;46.428;6.256;2023-04-15T00:28:47;3.13;;;1.30;;
41333;SDS011;27078;46.428;6.256;2023-04-15T00:31:12;3.05;;;1.13;;
41333;SDS011;27078;46.428;6.256;2023-04-15T00:33:38;4.00;;;1.45;;
41333;SDS011;27078;46.428;6.256;2023-04-15T00:36:05;2.40;;;1.30;;
41333;SDS011;27078;46.428;6.256;2023-04-15T00:38:30;2.17;;;1.20;;
41333;SDS011;27078;46.428;6.256;2023-04-15T00:40:56;2.95;;;1.27;;
41333;SDS011;27078;46.428;6.256;2023-04-15T00:43:22;3.28;;;1.40;;
41333;SDS011;27078;46.428;6.256;2023-04-15T00:45:47;3.45;;;1.48;;
41333;SDS011;27078;46.428;6.256;2023-04-15T00:48:15;2.47;;;1.33;;
41333;SDS011;27078;46.428;6.256;2023-04-15T00:50:41;2.75;;;1.30;;
41333;SDS011;27078;46.428;6.256;2023-04-15T00:53:06;3.00;;;1.40;;
41333;SDS011;27078;46.428;6.256;2023-04-15T00:55:32;2.17;;;1.30;;
41333;SDS011;27078;46.428;6.256;2023-04-15T00:57:57;3.65;;;1.73;;
41333;SDS011;27078;46.428;6.256;2023-04-15T01:00:23;2.42;;;1.50;;
41333;SDS011;27078;46.428;6.256;2023-04-15T01:02:48;2.53;;;1.30;;
41333;SDS011;27078;46.428;6.256;2023-04-15T01:05:14;2.70;;;1.60;;
41333;SDS011;27078;46.428;6.256;2023-04-15T01:07:42;2.13;;;1.00;;
41333;SDS011;27078;46.428;6.256;2023-04-15T01:10:07;2.13;;;0.70;;
41333;SDS011;27078;46.428;6.256;2023-04-15T01:12:33;2.90;;;1.00;;
41333;SDS011;27078;46.428;6.256;2023-04-15T01:15:00;1.60;;;0.57;;
41333;SDS011;27078;46.428;6.256;2023-04-15T01:17:26;1.52;;;0.60;;
41333;SDS011;27078;46.428;6.256;2023-04-15T01:19:52;1.45;;;0.40;;
41333;SDS011;27078;46.428;6.256;2023-04-15T01:22:20;1.58;;;0.40;;
41333;SDS011;27078;46.428;6.256;2023-04-15T01:24:48;1.15;;;0.45;;
41333;SDS011;27078;46.428;6.256;2023-04-15T01:27:22;0.93;;;0.38;;
41333;SDS011;27078;46.428;6.256;2023-04-15T01:29:48;0.55;;;0.30;;
41333;SDS011;27078;46.428;6.256;2023-04-15T01:32:13;0.82;;;0.45;;
41333;SDS011;27078;46.428;6.256;2023-04-15T01:34:38;1.63;;;0.30;;
41333;SDS011;27078;46.428;6.256;2023-04-15T01:37:04;1.63;;;0.60;;
41333;SDS011;27078;46.428;6.256;2023-04-15T01:39:29;1.13;;;0.50;;
41333;SDS011;27078;46.428;6.256;2023-04-15T01:41:54;1.95;;;0.60;;
41333;SDS011;27078;46.428;6.256;2023-04-15T01:44:21;0.60;;;0.40;;
41333;SDS011;27078;46.428;6.256;2023-04-15T01:46:46;1.30;;;0.70;;
41333;SDS011;27078;46.428;6.256;2023-04-15T01:49:12;1.45;;;0.70;;
41333;SDS011;27078;46.428;6.256;2023-04-15T01:51:37;1.50;;;0.70;;
41333;SDS011;27078;46.428;6.256;2023-04-15T01:54:02;1.50;;;0.50;;
41333;SDS011;27078;46.428;6.256;2023-04-15T01:56:28;2.05;;;0.60;;
41333;SDS011;27078;46.428;6.256;2023-04-15T01:58:53;1.52;;;0.60;;
41333;SDS011;27078;46.428;6.256;2023-04-15T02:01:19;0.77;;;0.45;;
41333;SDS011;27078;46.428;6.256;2023-04-15T02:03:44;0.80;;;0.55;;
41333;SDS011;27078;46.428;6.256;2023-04-15T02:06:10;1.48;;;0.50;;
41333;SDS011;27078;46.428;6.256;2023-04-15T02:08:36;1.02;;;0.50;;
41333;SDS011;27078;46.428;6.256;2023-04-15T02:11:01;1.02;;;0.50;;
41333;SDS011;27078;46.428;6.256;2023-04-15T02:13:27;1.95;;;0.40;;
41333;SDS011;27078;46.428;6.256;2023-04-15T02:15:53;0.80;;;0.38;;
41333;SDS011;27078;46.428;6.256;2023-04-15T02:18:19;0.80;;;0.40;;
41333;SDS011;27078;46.428;6.256;2023-04-15T02:20:45;1.30;;;0.45;;
41333;SDS011;27078;46.428;6.256;2023-04-15T02:23:11;2.25;;;0.52;;
41333;SDS011;27078;46.428;6.256;2023-04-15T02:25:36;1.98;;;0.50;;
41333;SDS011;27078;46.428;6.256;2023-04-15T02:28:03;1.05;;;0.40;;
41333;SDS011;27078;46.428;6.256;2023-04-15T02:30:30;1.10;;;0.50;;
41333;SDS011;27078;46.428;6.256;2023-04-15T02:32:56;1.65;;;0.57;;
41333;SDS011;27078;46.428;6.256;2023-04-15T02:35:21;1.85;;;0.65;;
41333;SDS011;27078;46.428;6.256;2023-04-15T02:37:49;1.30;;;0.60;;
41333;SDS011;27078;46.428;6.256;2023-04-15T02:40:15;1.17;;;0.50;;
41333;SDS011;27078;46.428;6.256;2023-04-15T02:42:41;1.77;;;0.60;;
41333;SDS011;27078;46.428;6.256;2023-04-15T02:45:08;1.35;;;0.40;;
41333;SDS011;27078;46.428;6.256;2023-04-15T02:47:34;1.27;;;0.60;;
41333;SDS011;27078;46.428;6.256;2023-04-15T02:50:00;1.30;;;0.57;;
41333;SDS011;27078;46.428;6.256;2023-04-15T02:52:27;1.58;;;0.70;;
41333;SDS011;27078;46.428;6.256;2023-04-15T02:54:52;1.73;;;0.73;;
41333;SDS011;27078;46.428;6.256;2023-04-15T02:57:21;1.70;;;0.60;;
41333;SDS011;27078;46.428;6.256;2023-04-15T02:59:47;1.80;;;0.70;;
41333;SDS011;27078;46.428;6.256;2023-04-15T03:02:12;1.90;;;0.60;;
41333;SDS011;27078;46.428;6.256;2023-04-15T03:04:37;1.77;;;0.68;;
41333;SDS011;27078;46.428;6.256;2023-04-15T03:07:03;1.00;;;0.50;;
41333;SDS011;27078;46.428;6.256;2023-04-15T03:09:29;1.13;;;0.60;;
41333;SDS011;27078;46.428;6.256;2023-04-15T03:11:54;1.40;;;0.70;;
41333;SDS011;27078;46.428;6.256;2023-04-15T03:14:20;0.93;;;0.70;;
41333;SDS011;27078;46.428;6.256;2023-04-15T03:16:46;1.13;;;0.77;;
41333;SDS011;27078;46.428;6.256;2023-04-15T03:19:11;1.52;;;0.60;;
41333;SDS011;27078;46.428;6.256;2023-04-15T03:21:37;2.50;;;0.80;;
41333;SDS011;27078;46.428;6.256;2023-04-15T03:24:02;2.28;;;0.80;;
41333;SDS011;27078;46.428;6.256;2023-04-15T03:26:28;2.00;;;0.80;;
41333;SDS011;27078;46.428;6.256;2023-04-15T03:28:54;1.75;;;0.90;;
41333;SDS011;27078;46.428;6.256;2023-04-15T03:31:20;2.25;;;0.80;;
41333;SDS011;27078;46.428;6.256;2023-04-15T03:33:46;1.30;;;0.98;;
41333;SDS011;27078;46.428;6.256;2023-04-15T03:36:11;1.30;;;0.70;;
41333;SDS011;27078;46.428;6.256;2023-04-15T03:38:36;2.10;;;0.75;;
41333;SDS011;27078;46.428;6.256;2023-04-15T03:41:02;1.52;;;0.80;;
41333;SDS011;27078;46.428;6.256;2023-04-15T03:43:27;2.08;;;1.20;;
41333;SDS011;27078;46.428;6.256;2023-04-15T03:45:52;1.25;;;0.75;;
41333;SDS011;27078;46.428;6.256;2023-04-15T03:48:18;1.52;;;0.77;;
41333;SDS011;27078;46.428;6.256;2023-04-15T03:50:43;1.42;;;0.82;;
41333;SDS011;27078;46.428;6.256;2023-04-15T03:53:09;1.15;;;0.70;;
41333;SDS011;27078;46.428;6.256;2023-04-15T03:55:34;2.13;;;0.90;;
41333;SDS011;27078;46.428;6.256;2023-04-15T03:58:00;1.20;;;0.77;;
41333;SDS011;27078;46.428;6.256;2023-04-15T04:00:25;1.60;;;1.10;;
41333;SDS011;27078;46.428;6.256;2023-04-15T04:02:51;1.67;;;0.88;;
41333;SDS011;27078;46.428;6.256;2023-04-15T04:05:16;1.35;;;0.80;;
41333;SDS011;27078;46.428;6.256;2023-04-15T04:07:41;2.47;;;0.73;;
41333;SDS011;27078;46.428;6.256;2023-04-15T04:10:07;1.80;;;0.70;;
41333;SDS011;27078;46.428;6.256;2023-04-15T04:12:32;1.70;;;0.80;;
41333;SDS011;27078;46.428;6.256;2023-04-15T04:14:58;2.00;;;0.80;;
41333;SDS011;27078;46.428;6.256;2023-04-15T04:17:23;2.15;;;0.90;;
41333;SDS011;27078;46.428;6.256;2023-04-15T04:19:48;1.30;;;0.90;;
41333;SDS011;27078;46.428;6.256;2023-04-15T04:22:14;1.90;;;0.65;;
41333;SDS011;27078;46.428;6.256;2023-04-15T04:24:39;1.25;;;0.70;;
41333;SDS011;27078;46.428;6.256;2023-04-15T04:27:04;2.38;;;0.70;;
41333;SDS011;27078;46.428;6.256;2023-04-15T04:29:30;2.38;;;0.70;;
41333;SDS011;27078;46.428;6.256;2023-04-15T04:31:55;1.55;;;0.50;;
41333;SDS011;27078;46.428;6.256;2023-04-15T04:34:20;1.23;;;0.50;;
41333;SDS011;27078;46.428;6.256;2023-04-15T04:36:46;0.85;;;0.40;;
41333;SDS011;27078;46.428;6.256;2023-04-15T04:39:11;1.13;;;0.40;;
41333;SDS011;27078;46.428;6.256;2023-04-15T04:41:36;1.67;;;0.52;;
41333;SDS011;27078;46.428;6.256;2023-04-15T04:44:02;0.75;;;0.45;;
41333;SDS011;27078;46.428;6.256;2023-04-15T04:46:27;1.20;;;0.50;;
41333;SDS011;27078;46.428;6.256;2023-04-15T04:48:53;0.88;;;0.50;;
41333;SDS011;27078;46.428;6.256;2023-04-15T04:51:18;2.22;;;0.50;;
41333;SDS011;27078;46.428;6.256;2023-04-15T04:53:43;0.60;;;0.30;;
41333;SDS011;27078;46.428;6.256;2023-04-15T04:56:09;1.00;;;0.40;;
41333;SDS011;27078;46.428;6.256;2023-04-15T04:58:34;0.88;;;0.40;;
41333;SDS011;27078;46.428;6.256;2023-04-15T05:01:00;2.83;;;0.50;;
41333;SDS011;27078;46.428;6.256;2023-04-15T05:03:26;1.35;;;0.50;;
41333;SDS011;27078;46.428;6.256;2023-04-15T05:05:52;2.10;;;0.70;;
41333;SDS011;27078;46.428;6.256;2023-04-15T05:08:18;0.90;;;0.70;;
41333;SDS011;27078;46.428;6.256;2023-04-15T05:10:44;1.52;;;0.88;;
41333;SDS011;27078;46.428;6.256;2023-04-15T05:13:09;2.17;;;1.15;;
41333;SDS011;27078;46.428;6.256;2023-04-15T05:15:35;2.03;;;1.15;;
41333;SDS011;27078;46.428;6.256;2023-04-15T05:18:03;1.48;;;0.90;;
41333;SDS011;27078;46.428;6.256;2023-04-15T05:20:28;1.70;;;0.93;;
41333;SDS011;27078;46.428;6.256;2023-04-15T05:22:54;1.55;;;1.00;;
41333;SDS011;27078;46.428;6.256;2023-04-15T05:25:19;2.53;;;1.10;;
41333;SDS011;27078;46.428;6.256;2023-04-15T05:27:45;3.25;;;1.20;;
41333;SDS011;27078;46.428;6.256;2023-04-15T05:30:10;2.28;;;1.13;;
41333;SDS011;27078;46.428;6.256;2023-04-15T05:32:36;2.38;;;1.20;;
41333;SDS011;27078;46.428;6.256;2023-04-15T05:35:01;2.70;;;1.20;;
41333;SDS011;27078;46.428;6.256;2023-04-15T05:37:27;2.20;;;1.10;;
41333;SDS011;27078;46.428;6.256;2023-04-15T05:39:52;2.10;;;1.30;;
41333;SDS011;27078;46.428;6.256;2023-04-15T05:42:17;1.60;;;1.10;;
41333;SDS011;27078;46.428;6.256;2023-04-15T05:44:43;2.35;;;1.02;;
41333;SDS011;27078;46.428;6.256;2023-04-15T05:47:08;1.80;;;1.33;;
41333;SDS011;27078;46.428;6.256;2023-04-15T05:49:34;3.38;;;1.30;;
41333;SDS011;27078;46.428;6.256;2023-04-15T05:52:00;2.53;;;1.35;;
41333;SDS011;27078;46.428;6.256;2023-04-15T05:54:26;3.00;;;1.50;;
41333;SDS011;27078;46.428;6.256;2023-04-15T05:56:51;2.53;;;1.20;;
41333;SDS011;27078;46.428;6.256;2023-04-15T05:59:17;2.50;;;1.10;;
41333;SDS011;27078;46.428;6.256;2023-04-15T06:01:42;2.60;;;1.10;;
41333;SDS011;27078;46.428;6.256;2023-04-15T06:04:09;3.13;;;1.20;;
41333;SDS011;27078;46.428;6.256;2023-04-15T06:06:35;2.83;;;1.08;;
41333;SDS011;27078;46.428;6.256;2023-04-15T06:09:01;2.15;;;0.95;;
41333;SDS011;27078;46.428;6.256;2023-04-15T06:11:26;2.72;;;0.90;;
41333;SDS011;27078;46.428;6.256;2023-04-15T06:13:52;1.92;;;0.75;;
41333;SDS011;27078;46.428;6.256;2023-04-15T06:16:17;0.93;;;0.40;;
41333;SDS011;27078;46.428;6.256;2023-04-15T06:18:42;2.30;;;0.40;;
41333;SDS011;27078;46.428;6.256;2023-04-15T06:21:08;1.08;;;0.38;;
41333;SDS011;27078;46.428;6.256;2023-04-15T06:23:34;1.17;;;0.40;;
41333;SDS011;27078;46.428;6.256;2023-04-15T06:26:00;2.63;;;0.30;;
41333;SDS011;27078;46.428;6.256;2023-04-15T06:28:26;0.82;;;0.38;;
41333;SDS011;27078;46.428;6.256;2023-04-15T06:30:51;2.05;;;0.32;;
41333;SDS011;27078;46.428;6.256;2023-04-15T06:33:17;0.75;;;0.20;;
41333;SDS011;27078;46.428;6.256;2023-04-15T06:35:42;0.40;;;0.10;;
41333;SDS011;27078;46.428;6.256;2023-04-15T06:38:08;0.85;;;0.20;;
41333;SDS011;27078;46.428;6.256;2023-04-15T06:40:33;0.28;;;0.10;;
41333;SDS011;27078;46.428;6.256;2023-04-15T06:42:58;4.60;;;0.10;;
41333;SDS011;27078;46.428;6.256;2023-04-15T06:45:24;1.60;;;0.10;;
41333;SDS011;27078;46.428;6.256;2023-04-15T06:47:49;0.52;;;0.10;;
41333;SDS011;27078;46.428;6.256;2023-04-15T06:50:15;0.30;;;0.10;;
41333;SDS011;27078;46.428;6.256;2023-04-15T06:52:40;0.60;;;0.10;;
41333;SDS011;27078;46.428;6.256;2023-04-15T06:55:05;0.95;;;0.00;;
41333;SDS011;27078;46.428;6.256;2023-04-15T06:57:31;1.25;;;0.05;;
41333;SDS011;27078;46.428;6.256;2023-04-15T06:59:57;0.30;;;0.00;;
41333;SDS011;27078;46.428;6.256;2023-04-15T07:02:22;0.63;;;0.00;;
41333;SDS011;27078;46.428;6.256;2023-04-15T07:04:48;0.30;;;0.00;;
41333;SDS011;27078;46.428;6.256;2023-04-15T07:07:13;2.35;;;0.08;;
41333;SDS011;27078;46.428;6.256;2023-04-15T07:09:39;0.85;;;0.00;;
41333;SDS011;27078;46.428;6.256;2023-04-15T07:12:04;0.10;;;0.00;;
41333;SDS011;27078;46.428;6.256;2023-04-15T07:14:30;1.20;;;0.00;;
41333;SDS011;27078;46.428;6.256;2023-04-15T07:16:55;0.20;;;0.00;;
41333;SDS011;27078;46.428;6.256;2023-04-15T07:19:21;1.83;;;0.00;;
41333;SDS011;27078;46.428;6.256;2023-04-15T07:21:47;2.17;;;0.10;;
41333;SDS011;27078;46.428;6.256;2023-04-15T07:24:13;2.17;;;0.13;;
41333;SDS011;27078;46.428;6.256;2023-04-15T07:26:42;0.57;;;0.00;;
41333;SDS011;27078;46.428;6.256;2023-04-15T07:29:08;0.38;;;0.00;;
41333;SDS011;27078;46.428;6.256;2023-04-15T07:31:34;0.32;;;0.00;;
41333;SDS011;27078;46.428;6.256;2023-04-15T07:34:00;1.38;;;0.10;;
41333;SDS011;27078;46.428;6.256;2023-04-15T07:36:26;1.30;;;0.00;;
41333;SDS011;27078;46.428;6.256;2023-04-15T07:38:53;0.50;;;0.10;;
41333;SDS011;27078;46.428;6.256;2023-04-15T07:41:19;0.50;;;0.10;;
41333;SDS011;27078;46.428;6.256;2023-04-15T07:43:45;0.68;;;0.05;;
41333;SDS011;27078;46.428;6.256;2023-04-15T07:46:10;0.73;;;0.10;;
41333;SDS011;27078;46.428;6.256;2023-04-15T07:48:36;0.60;;;0.10;;
41333;SDS011;27078;46.428;6.256;2023-04-15T07:51:01;0.25;;;0.05;;
41333;SDS011;27078;46.428;6.256;2023-04-15T07:53:27;1.55;;;0.20;;
41333;SDS011;27078;46.428;6.256;2023-04-15T07:55:53;0.10;;;0.10;;
41333;SDS011;27078;46.428;6.256;2023-04-15T07:58:18;0.95;;;0.10;;
41333;SDS011;27078;46.428;6.256;2023-04-15T08:00:43;0.40;;;0.10;;
41333;SDS011;27078;46.428;6.256;2023-04-15T08:03:09;2.15;;;0.40;;
41333;SDS011;27078;46.428;6.256;2023-04-15T08:05:34;1.85;;;0.40;;
41333;SDS011;27078;46.428;6.256;2023-04-15T08:08:00;2.40;;;0.57;;
41333;SDS011;27078;46.428;6.256;2023-04-15T08:10:25;1.30;;;0.50;;
41333;SDS011;27078;46.428;6.256;2023-04-15T08:12:51;1.25;;;0.40;;
41333;SDS011;27078;46.428;6.256;2023-04-15T08:15:18;2.45;;;0.30;;
41333;SDS011;27078;46.428;6.256;2023-04-15T08:17:44;4.45;;;0.60;;
41333;SDS011;27078;46.428;6.256;2023-04-15T08:20:10;4.28;;;0.60;;
41333;SDS011;27078;46.428;6.256;2023-04-15T08:22:36;1.38;;;0.50;;
41333;SDS011;27078;46.428;6.256;2023-04-15T08:25:01;1.10;;;0.40;;
41333;SDS011;27078;46.428;6.256;2023-04-15T08:27:27;1.38;;;0.40;;
41333;SDS011;27078;46.428;6.256;2023-04-15T08:29:52;1.85;;;0.32;;
41333;SDS011;27078;46.428;6.256;2023-04-15T08:32:18;1.65;;;0.40;;
41333;SDS011;27078;46.428;6.256;2023-04-15T08:34:44;1.35;;;0.38;;
41333;SDS011;27078;46.428;6.256;2023-04-15T08:37:09;1.05;;;0.30;;
41333;SDS011;27078;46.428;6.256;2023-04-15T08:39:34;1.38;;;0.60;;
41333;SDS011;27078;46.428;6.256;2023-04-15T08:42:00;2.15;;;0.40;;
41333;SDS011;27078;46.428;6.256;2023-04-15T08:44:32;1.55;;;0.50;;
41333;SDS011;27078;46.428;6.256;2023-04-15T08:47:02;1.67;;;0.50;;
41333;SDS011;27078;46.428;6.256;2023-04-15T08:49:31;0.82;;;0.40;;
41333;SDS011;27078;46.428;6.256;2023-04-15T08:51:57;1.13;;;0.40;;
41333;SDS011;27078;46.428;6.256;2023-04-15T08:54:24;1.77;;;0.35;;
41333;SDS011;27078;46.428;6.256;2023-04-15T08:56:51;1.15;;;0.35;;
41333;SDS011;27078;46.428;6.256;2023-04-15T08:59:16;1.33;;;0.32;;
41333;SDS011;27078;46.428;6.256;2023-04-15T09:01:42;1.98;;;0.40;;
41333;SDS011;27078;46.428;6.256;2023-04-15T09:04:08;3.15;;;0.20;;
41333;SDS011;27078;46.428;6.256;2023-04-15T09:06:36;0.60;;;0.20;;
41333;SDS011;27078;46.428;6.256;2023-04-15T09:09:03;1.95;;;0.20;;
41333;SDS011;27078;46.428;6.256;2023-04-15T09:11:29;0.80;;;0.10;;
41333;SDS011;27078;46.428;6.256;2023-04-15T09:13:55;1.13;;;0.20;;
41333;SDS011;27078;46.428;6.256;2023-04-15T09:16:20;3.53;;;0.32;;
41333;SDS011;27078;46.428;6.256;2023-04-15T09:18:46;1.15;;;0.20;;
41333;SDS011;27078;46.428;6.256;2023-04-15T09:21:35;1.25;;;0.43;;
41333;SDS011;27078;46.428;6.256;2023-04-15T09:24:00;0.90;;;0.20;;
41333;SDS011;27078;46.428;6.256;2023-04-15T09:26:31;1.10;;;0.30;;
41333;SDS011;27078;46.428;6.256;2023-04-15T09:29:07;1.95;;;0.30;;
41333;SDS011;27078;46.428;6.256;2023-04-15T09:31:38;0.90;;;0.20;;
41333;SDS011;27078;46.428;6.256;2023-04-15T09:34:04;1.33;;;0.20;;
41333;SDS011;27078;46.428;6.256;2023-04-15T09:39:11;0.45;;;0.10;;
41333;SDS011;27078;46.428;6.256;2023-04-15T09:41:37;1.40;;;0.20;;
41333;SDS011;27078;46.428;6.256;2023-04-15T09:44:03;0.60;;;0.00;;
41333;SDS011;27078;46.428;6.256;2023-04-15T09:46:41;0.28;;;0.00;;
41333;SDS011;27078;46.428;6.256;2023-04-15T09:49:08;0.00;;;0.00;;
41333;SDS011;27078;46.428;6.256;2023-04-15T09:51:34;0.00;;;0.00;;
41333;SDS011;27078;46.428;6.256;2023-04-15T09:54:00;3.28;;;0.10;;
41333;SDS011;27078;46.428;6.256;2023-04-15T09:56:30;1.92;;;0.30;;
41333;SDS011;27078;46.428;6.256;2023-04-15T09:58:58;0.30;;;0.10;;
41333;SDS011;27078;46.428;6.256;2023-04-15T10:01:24;0.10;;;0.00;;
41333;SDS011;27078;46.428;6.256;2023-04-15T10:03:49;0.82;;;0.10;;
41333;SDS011;27078;46.428;6.256;2023-04-15T10:06:16;1.10;;;0.10;;
41333;SDS011;27078;46.428;6.256;2023-04-15T10:08:42;0.10;;;0.00;;
41333;SDS011;27078;46.428;6.256;2023-04-15T10:11:07;1.00;;;0.10;;
41333;SDS011;27078;46.428;6.256;2023-04-15T10:13:33;0.00;;;0.00;;
41333;SDS011;27078;46.428;6.256;2023-04-15T10:16:05;0.52;;;0.10;;
41333;SDS011;27078;46.428;6.256;2023-04-15T10:18:35;0.40;;;0.10;;
41333;SDS011;27078;46.428;6.256;2023-04-15T10:21:05;0.80;;;0.10;;
41333;SDS011;27078;46.428;6.256;2023-04-15T10:26:54;0.57;;;0.00;;
41333;SDS011;27078;46.428;6.256;2023-04-15T10:29:21;0.10;;;0.00;;
41333;SDS011;27078;46.428;6.256;2023-04-15T10:31:49;0.95;;;0.10;;
41333;SDS011;27078;46.428;6.256;2023-04-15T10:34:15;0.00;;;0.00;;
41333;SDS011;27078;46.428;6.256;2023-04-15T10:36:42;0.20;;;0.00;;
41333;SDS011;27078;46.428;6.256;2023-04-15T10:42:17;1.40;;;0.10;;
41333;SDS011;27078;46.428;6.256;2023-04-15T10:44:50;0.10;;;0.00;;
41333;SDS011;27078;46.428;6.256;2023-04-15T10:47:20;0.00;;;0.00;;
41333;SDS011;27078;46.428;6.256;2023-04-15T10:49:51;0.03;;;0.00;;
41333;SDS011;27078;46.428;6.256;2023-04-15T10:52:22;1.77;;;0.00;;
41333;SDS011;27078;46.428;6.256;2023-04-15T10:54:49;0.50;;;0.10;;
41333;SDS011;27078;46.428;6.256;2023-04-15T10:57:36;0.22;;;0.00;;
41333;SDS011;27078;46.428;6.256;2023-04-15T11:05:11;0.00;;;0.00;;
41333;SDS011;27078;46.428;6.256;2023-04-15T11:10:49;0.00;;;0.00;;
41333;SDS011;27078;46.428;6.256;2023-04-15T11:13:01;0.08;;;0.00;;
41333;SDS011;27078;46.428;6.256;2023-04-15T11:15:32;0.30;;;0.00;;
41333;SDS011;27078;46.428;6.256;2023-04-15T11:18:08;0.00;;;0.00;;
41333;SDS011;27078;46.428;6.256;2023-04-15T11:20:44;0.38;;;0.03;;
41333;SDS011;27078;46.428;6.256;2023-04-15T11:23:18;0.10;;;0.00;;
41333;SDS011;27078;46.428;6.256;2023-04-15T11:25:51;0.10;;;0.00;;
41333;SDS011;27078;46.428;6.256;2023-04-15T11:28:19;1.00;;;0.00;;
41333;SDS011;27078;46.428;6.256;2023-04-15T11:30:44;0.10;;;0.00;;
41333;SDS011;27078;46.428;6.256;2023-04-15T11:33:10;0.00;;;0.00;;
41333;SDS011;27078;46.428;6.256;2023-04-15T11:35:36;0.35;;;0.00;;
41333;SDS011;27078;46.428;6.256;2023-04-15T11:38:07;0.30;;;0.10;;
41333;SDS011;27078;46.428;6.256;2023-04-15T11:43:06;1.13;;;0.00;;
41333;SDS011;27078;46.428;6.256;2023-04-15T11:45:37;0.00;;;0.00;;
41333;SDS011;27078;46.428;6.256;2023-04-15T11:48:24;0.00;;;0.00;;
41333;SDS011;27078;46.428;6.256;2023-04-15T11:50:54;0.35;;;0.00;;
41333;SDS011;27078;46.428;6.256;2023-04-15T11:53:22;0.68;;;0.00;;
41333;SDS011;27078;46.428;6.256;2023-04-15T11:55:49;0.00;;;0.00;;
41333;SDS011;27078;46.428;6.256;2023-04-15T11:58:19;0.05;;;0.00;;
41333;SDS011;27078;46.428;6.256;2023-04-15T12:03:38;0.08;;;0.00;;
41333;SDS011;27078;46.428;6.256;2023-04-15T12:06:04;1.77;;;0.05;;
41333;SDS011;27078;46.428;6.256;2023-04-15T12:13:52;0.22;;;0.00;;
41333;SDS011;27078;46.428;6.256;2023-04-15T12:16:19;0.20;;;0.00;;
41333;SDS011;27078;46.428;6.256;2023-04-15T12:18:45;0.08;;;0.00;;
41333;SDS011;27078;46.428;6.256;2023-04-15T12:21:11;0.00;;;0.00;;
41333;SDS011;27078;46.428;6.256;2023-04-15T12:23:47;0.03;;;0.00;;
41333;SDS011;27078;46.428;6.256;2023-04-15T12:26:14;0.00;;;0.00;;
41333;SDS011;27078;46.428;6.256;2023-04-15T12:28:40;0.00;;;0.00;;
41333;SDS011;27078;46.428;6.256;2023-04-15T12:31:06;0.20;;;0.10;;
41333;SDS011;27078;46.428;6.256;2023-04-15T12:33:33;0.30;;;0.05;;
41333;SDS011;27078;46.428;6.256;2023-04-15T12:35:59;0.57;;;0.10;;
41333;SDS011;27078;46.428;6.256;2023-04-15T12:38:24;0.57;;;0.10;;
41333;SDS011;27078;46.428;6.256;2023-04-15T12:40:49;0.82;;;0.10;;
41333;SDS011;27078;46.428;6.256;2023-04-15T12:43:15;1.13;;;0.00;;
41333;SDS011;27078;46.428;6.256;2023-04-15T12:45:41;0.05;;;0.00;;
41333;SDS011;27078;46.428;6.256;2023-04-15T12:48:06;0.13;;;0.00;;
41333;SDS011;27078;46.428;6.256;2023-04-15T12:50:33;0.30;;;0.00;;
41333;SDS011;27078;46.428;6.256;2023-04-15T12:52:59;0.10;;;0.00;;
41333;SDS011;27078;46.428;6.256;2023-04-15T12:55:24;0.00;;;0.00;;
41333;SDS011;27078;46.428;6.256;2023-04-15T12:57:50;0.20;;;0.00;;
41333;SDS011;27078;46.428;6.256;2023-04-15T13:00:15;0.00;;;0.00;;
41333;SDS011;27078;46.428;6.256;2023-04-15T13:02:42;0.00;;;0.00;;
41333;SDS011;27078;46.428;6.256;2023-04-15T13:05:08;0.10;;;0.00;;
41333;SDS011;27078;46.428;6.256;2023-04-15T13:07:33;0.80;;;0.00;;
41333;SDS011;27078;46.428;6.256;2023-04-15T13:09:59;0.00;;;0.00;;
41333;SDS011;27078;46.428;6.256;2023-04-15T13:12:25;0.08;;;0.00;;
41333;SDS011;27078;46.428;6.256;2023-04-15T13:14:51;0.25;;;0.10;;
41333;SDS011;27078;46.428;6.256;2023-04-15T13:17:17;0.60;;;0.13;;
41333;SDS011;27078;46.428;6.256;2023-04-15T13:19:44;0.10;;;0.10;;
41333;SDS011;27078;46.428;6.256;2023-04-15T13:22:10;0.22;;;0.00;;
41333;SDS011;27078;46.428;6.256;2023-04-15T13:24:36;0.25;;;0.10;;
41333;SDS011;27078;46.428;6.256;2023-04-15T13:27:03;0.30;;;0.10;;
41333;SDS011;27078;46.428;6.256;2023-04-15T13:29:28;0.47;;;0.10;;
41333;SDS011;27078;46.428;6.256;2023-04-15T13:31:54;0.98;;;0.00;;
41333;SDS011;27078;46.428;6.256;2023-04-15T13:34:20;0.08;;;0.00;;
41333;SDS011;27078;46.428;6.256;2023-04-15T13:36:46;0.00;;;0.00;;
41333;SDS011;27078;46.428;6.256;2023-04-15T13:39:11;0.13;;;0.00;;
41333;SDS011;27078;46.428;6.256;2023-04-15T13:41:37;0.45;;;0.00;;
41333;SDS011;27078;46.428;6.256;2023-04-15T13:44:02;0.03;;;0.00;;
41333;SDS011;27078;46.428;6.256;2023-04-15T13:46:28;0.00;;;0.00;;
41333;SDS011;27078;46.428;6.256;2023-04-15T13:48:54;0.00;;;0.00;;
41333;SDS011;27078;46.428;6.256;2023-04-15T13:51:19;0.22;;;0.00;;
41333;SDS011;27078;46.428;6.256;2023-04-15T13:53:45;0.10;;;0.00;;
41333;SDS011;27078;46.428;6.256;2023-04-15T13:56:10;0.00;;;0.00;;
41333;SDS011;27078;46.428;6.256;2023-04-15T13:58:36;0.00;;;0.00;;
41333;SDS011;27078;46.428;6.256;2023-04-15T14:01:02;0.98;;;0.00;;
41333;SDS011;27078;46.428;6.256;2023-04-15T14:03:28;0.65;;;0.00;;
41333;SDS011;27078;46.428;6.256;2023-04-15T14:05:53;0.10;;;0.00;;
41333;SDS011;27078;46.428;6.256;2023-04-15T14:08:20;0.00;;;0.00;;
41333;SDS011;27078;46.428;6.256;2023-04-15T14:10:46;0.00;;;0.00;;
41333;SDS011;27078;46.428;6.256;2023-04-15T14:13:13;0.00;;;0.00;;
41333;SDS011;27078;46.428;6.256;2023-04-15T14:15:39;0.10;;;0.00;;
41333;SDS011;27078;46.428;6.256;2023-04-15T14:18:05;0.00;;;0.00;;
41333;SDS011;27078;46.428;6.256;2023-04-15T14:20:31;0.10;;;0.00;;
41333;SDS011;27078;46.428;6.256;2023-04-15T14:22:56;0.00;;;0.00;;
41333;SDS011;27078;46.428;6.256;2023-04-15T14:25:22;0.00;;;0.00;;
41333;SDS011;27078;46.428;6.256;2023-04-15T14:27:47;0.00;;;0.00;;
41333;SDS011;27078;46.428;6.256;2023-04-15T14:30:12;0.00;;;0.00;;
41333;SDS011;27078;46.428;6.256;2023-04-15T14:32:38;0.73;;;0.00;;
41333;SDS011;27078;46.428;6.256;2023-04-15T14:35:04;0.20;;;0.00;;
41333;SDS011;27078;46.428;6.256;2023-04-15T14:37:29;0.00;;;0.00;;
41333;SDS011;27078;46.428;6.256;2023-04-15T14:39:55;0.00;;;0.00;;
41333;SDS011;27078;46.428;6.256;2023-04-15T14:42:20;0.65;;;0.00;;
41333;SDS011;27078;46.428;6.256;2023-04-15T14:44:46;0.10;;;0.00;;
41333;SDS011;27078;46.428;6.256;2023-04-15T14:47:11;0.10;;;0.00;;
41333;SDS011;27078;46.428;6.256;2023-04-15T14:49:37;0.17;;;0.00;;
41333;SDS011;27078;46.428;6.256;2023-04-15T14:52:02;0.10;;;0.00;;
41333;SDS011;27078;46.428;6.256;2023-04-15T14:54:28;0.00;;;0.00;;
41333;SDS011;27078;46.428;6.256;2023-04-15T14:56:53;0.10;;;0.00;;
41333;SDS011;27078;46.428;6.256;2023-04-15T14:59:19;0.00;;;0.00;;
41333;SDS011;27078;46.428;6.256;2023-04-15T15:01:45;0.00;;;0.00;;
41333;SDS011;27078;46.428;6.256;2023-04-15T15:04:10;0.20;;;0.00;;
41333;SDS011;27078;46.428;6.256;2023-04-15T15:06:36;0.00;;;0.00;;
41333;SDS011;27078;46.428;6.256;2023-04-15T15:09:02;0.30;;;0.00;;
41333;SDS011;27078;46.428;6.256;2023-04-15T15:11:28;0.03;;;0.00;;